Time;durP1;ratioP1;P1;durP2;ratioP2;P2;SDS_P1;SDS_P2;PMS_P1;PMS_P2;Temp;Humidity;BMP_temperature;BMP_pressure;BME280_temperature;BME280_humidity;BME280_pressure;Samples;Min_cycle;Max_cycle;Signal;HPM_P1;HPM_P2
2023/12/21 00:01:35;;;;;;;0.40;0.30;;;;;2.60;93727.00;;;;7401654;19;20491;-84
2023/12/21 00:04:11;;;;;;;0.27;0.27;;;;;2.50;93723.00;;;;7401836;19;20144;-83
2023/12/21 00:06:39;;;;;;;0.20;0.20;;;;;2.50;93720.00;;;;7401369;19;20137;-84
2023/12/21 00:09:13;;;;;;;1.13;0.37;;;;;2.60;93720.00;;;;7400670;19;20576;-84
2023/12/21 00:11:46;;;;;;;1.33;0.30;;;;;2.60;93714.00;;;;7399599;19;20159;-84
2023/12/21 00:14:23;;;;;;;0.20;0.10;;;;;2.50;93717.00;;;;7400989;19;20161;-84
2023/12/21 00:16:52;;;;;;;0.93;0.13;;;;;2.50;93710.00;;;;7401235;19;20125;-85
2023/12/21 00:19:26;;;;;;;0.67;0.20;;;;;2.50;93695.00;;;;7400103;19;20219;-85
2023/12/21 00:21:54;;;;;;;0.30;0.30;;;;;2.60;93709.00;;;;7401857;19;20141;-84
2023/12/21 00:24:21;;;;;;;0.30;0.20;;;;;2.60;93692.00;;;;7400297;19;20137;-85
2023/12/21 00:26:58;;;;;;;0.30;0.20;;;;;2.60;93680.00;;;;7400144;19;20140;-84
2023/12/21 00:29:30;;;;;;;0.10;0.10;;;;;2.60;93672.00;;;;7400399;19;20141;-84
2023/12/21 00:32:05;;;;;;;0.27;0.23;;;;;2.60;93677.00;;;;7399532;19;20145;-84
2023/12/21 00:34:39;;;;;;;0.40;0.23;;;;;2.60;93689.00;;;;7400645;19;20487;-83
2023/12/21 00:37:13;;;;;;;0.20;0.20;;;;;2.60;93689.00;;;;7399819;19;20607;-83
2023/12/21 00:39:59;;;;;;;0.27;0.20;;;;;2.60;93681.00;;;;7399153;19;20561;-83
2023/12/21 00:42:36;;;;;;;0.30;0.20;;;;;2.60;93688.00;;;;7399110;19;20609;-81
2023/12/21 00:45:11;;;;;;;0.27;0.20;;;;;2.60;93690.00;;;;7400374;19;20145;-83
2023/12/21 00:47:39;;;;;;;0.10;0.10;;;;;2.70;93681.00;;;;7399737;19;20601;-82
2023/12/21 00:50:15;;;;;;;0.10;0.10;;;;;2.70;93679.00;;;;7398932;19;20535;-83
2023/12/21 00:52:49;;;;;;;0.27;0.20;;;;;2.60;93679.00;;;;7399938;19;20151;-84
2023/12/21 00:55:17;;;;;;;0.10;0.10;;;;;2.60;93674.00;;;;7399473;19;20145;-84
2023/12/21 00:57:51;;;;;;;0.13;0.13;;;;;2.70;93677.00;;;;7400788;19;20140;-84
2023/12/21 01:00:19;;;;;;;0.93;0.30;;;;;2.70;93665.00;;;;7399413;19;20148;-83
2023/12/21 01:02:47;;;;;;;0.20;0.20;;;;;2.70;93680.00;;;;7398406;19;20166;-84
2023/12/21 01:05:21;;;;;;;0.80;0.30;;;;;2.70;93675.00;;;;7398639;19;20607;-83
2023/12/21 01:07:51;;;;;;;0.33;0.33;;;;;2.70;93674.00;;;;7398011;19;20168;-83
2023/12/21 01:10:25;;;;;;;0.47;0.30;;;;;2.70;93666.00;;;;7400240;19;20125;-84
2023/12/21 01:12:53;;;;;;;0.50;0.20;;;;;2.80;93650.00;;;;7399122;19;20133;-84
2023/12/21 01:15:27;;;;;;;1.33;0.20;;;;;2.80;93648.00;;;;7398398;19;20182;-84
2023/12/21 01:18:01;;;;;;;0.10;0.10;;;;;2.70;93655.00;;;;7397438;19;20628;-84
2023/12/21 01:20:35;;;;;;;0.20;0.20;;;;;2.80;93639.00;;;;7399969;19;20603;-84
2023/12/21 01:23:10;;;;;;;0.20;0.20;;;;;2.70;93636.00;;;;7397645;19;20435;-83
2023/12/21 01:25:44;;;;;;;0.80;0.23;;;;;2.70;93640.00;;;;7400054;19;20147;-84
2023/12/21 01:28:12;;;;;;;0.13;0.13;;;;;2.80;93639.00;;;;7397670;19;20137;-83
2023/12/21 01:30:48;;;;;;;0.20;0.10;;;;;2.70;93636.00;;;;7398526;19;20160;-84
2023/12/21 01:33:16;;;;;;;0.40;0.30;;;;;2.80;93625.00;;;;7397433;19;20627;-84
2023/12/21 01:35:43;;;;;;;0.50;0.30;;;;;2.70;93621.00;;;;7399876;19;20196;-84
2023/12/21 01:38:18;;;;;;;0.63;0.30;;;;;2.70;93651.00;;;;7399790;19;20136;-84
2023/12/21 01:40:52;;;;;;;0.27;0.20;;;;;2.80;93632.00;;;;7395817;19;20647;-85
2023/12/21 01:43:27;;;;;;;0.00;0.00;;;;;2.70;93624.00;;;;7396960;19;20133;-84
2023/12/21 01:45:57;;;;;;;0.20;0.10;;;;;2.80;93628.00;;;;7397764;19;20622;-85
2023/12/21 01:48:32;;;;;;;0.10;0.10;;;;;2.80;93632.00;;;;7397189;19;20627;-85
2023/12/21 01:51:02;;;;;;;0.10;0.10;;;;;2.80;93618.00;;;;7399399;19;20623;-86
2023/12/21 01:53:38;;;;;;;0.63;0.20;;;;;2.80;93614.00;;;;7395466;19;20482;-85
2023/12/21 01:56:12;;;;;;;0.13;0.10;;;;;2.80;93610.00;;;;7399102;19;20161;-86
2023/12/21 01:58:48;;;;;;;0.17;0.17;;;;;2.80;93612.00;;;;7397580;19;20161;-80
2023/12/21 02:01:22;;;;;;;0.40;0.10;;;;;2.80;93609.00;;;;7397617;19;20161;-81
2023/12/21 02:03:53;;;;;;;0.20;0.13;;;;;2.90;93616.00;;;;7399350;19;20193;-80
2023/12/21 02:06:27;;;;;;;0.30;0.13;;;;;2.80;93611.00;;;;7397173;19;20141;-80
2023/12/21 02:08:55;;;;;;;0.17;0.10;;;;;2.80;93597.00;;;;7397435;19;20626;-80
2023/12/21 02:11:29;;;;;;;0.10;0.10;;;;;2.80;93599.00;;;;7397676;19;20150;-80
2023/12/21 02:14:03;;;;;;;0.00;0.00;;;;;2.80;93590.00;;;;7397016;19;20464;-83
2023/12/21 02:16:58;;;;;;;0.27;0.27;;;;;2.80;93588.00;;;;7396918;19;20137;-81
2023/12/21 02:19:26;;;;;;;0.03;0.03;;;;;2.90;93581.00;;;;7398441;19;20125;-80
2023/12/21 02:22:01;;;;;;;0.00;0.00;;;;;2.90;93578.00;;;;7397961;19;20608;-81
2023/12/21 02:24:30;;;;;;;0.10;0.03;;;;;3.00;93591.00;;;;7397960;19;20487;-80
2023/12/21 02:27:07;;;;;;;1.83;0.47;;;;;2.90;93596.00;;;;7397937;19;20165;-80
2023/12/21 02:29:43;;;;;;;0.20;0.10;;;;;2.80;93581.00;;;;7396918;19;20136;-80
2023/12/21 02:32:19;;;;;;;0.70;0.30;;;;;3.00;93581.00;;;;7397853;19;20476;-81
2023/12/21 02:34:52;;;;;;;0.00;0.00;;;;;3.00;93575.00;;;;7393982;19;20208;-81
2023/12/21 02:37:27;;;;;;;0.23;0.20;;;;;3.00;93578.00;;;;7397818;19;20547;-81
2023/12/21 02:39:55;;;;;;;0.27;0.10;;;;;3.00;93568.00;;;;7395130;19;20620;-80
2023/12/21 02:42:30;;;;;;;0.00;0.00;;;;;3.00;93559.00;;;;7397836;19;20144;-80
2023/12/21 02:44:57;;;;;;;0.10;0.10;;;;;3.10;93550.00;;;;7394775;19;20147;-80
2023/12/21 02:47:31;;;;;;;0.10;0.10;;;;;3.10;93537.00;;;;7395883;19;20121;-81
2023/12/21 02:49:59;;;;;;;1.07;0.10;;;;;2.90;93527.00;;;;7387702;19;20145;-80
2023/12/21 02:52:34;;;;;;;0.57;0.20;;;;;3.10;93512.00;;;;7394939;19;20151;-81
2023/12/21 02:55:01;;;;;;;1.83;0.30;;;;;3.10;93517.00;;;;7393262;19;20152;-82
2023/12/21 02:57:36;;;;;;;0.00;0.00;;;;;3.10;93494.00;;;;7396796;19;20137;-80
2023/12/21 03:00:10;;;;;;;0.10;0.10;;;;;3.10;93512.00;;;;7393574;19;20129;-80
2023/12/21 03:02:44;;;;;;;0.10;0.10;;;;;3.10;93482.00;;;;7394070;19;20140;-82
2023/12/21 03:05:12;;;;;;;0.00;0.00;;;;;3.10;93473.00;;;;7396455;19;20680;-80
2023/12/21 03:07:52;;;;;;;0.27;0.10;;;;;3.20;93467.00;;;;7402221;19;20222;-80
2023/12/21 03:10:27;;;;;;;0.07;0.07;;;;;3.20;93465.00;;;;7402913;19;20633;-83
2023/12/21 03:12:54;;;;;;;0.43;0.10;;;;;3.20;93480.00;;;;7403381;19;20132;-83
2023/12/21 03:15:31;;;;;;;1.20;0.20;;;;;3.30;93489.00;;;;7403806;19;20139;-81
2023/12/21 03:17:59;;;;;;;0.07;0.07;;;;;3.20;93479.00;;;;7400866;19;20145;-82
2023/12/21 03:20:34;;;;;;;0.47;0.07;;;;;3.20;93474.00;;;;7400603;19;20152;-82
2023/12/21 03:23:01;;;;;;;0.00;0.00;;;;;3.20;93465.00;;;;7402182;19;20125;-83
2023/12/21 03:25:35;;;;;;;0.00;0.00;;;;;3.30;93458.00;;;;7404089;19;20576;-81
2023/12/21 03:28:10;;;;;;;0.10;0.10;;;;;3.30;93447.00;;;;7401815;19;20662;-80
2023/12/21 03:30:38;;;;;;;0.10;0.10;;;;;3.30;93447.00;;;;7403744;19;20136;-82
2023/12/21 03:33:12;;;;;;;0.00;0.00;;;;;3.30;93453.00;;;;7401313;19;20505;-82
2023/12/21 03:35:42;;;;;;;0.23;0.10;;;;;3.30;93443.00;;;;7403492;19;20135;-83
2023/12/21 03:38:19;;;;;;;0.10;0.10;;;;;3.30;93432.00;;;;7401180;19;20165;-83
2023/12/21 03:40:53;;;;;;;0.27;0.13;;;;;3.30;93423.00;;;;7400531;19;20149;-83
2023/12/21 03:43:28;;;;;;;0.40;0.20;;;;;3.40;93424.00;;;;7401981;19;20125;-83
2023/12/21 03:46:02;;;;;;;0.00;0.00;;;;;3.30;93431.00;;;;7402458;19;20244;-83
2023/12/21 03:48:36;;;;;;;0.03;0.03;;;;;3.40;93437.00;;;;7401229;19;20591;-81
2023/12/21 03:51:04;;;;;;;0.10;0.10;;;;;3.40;93449.00;;;;7400905;19;20664;-82
2023/12/21 03:53:38;;;;;;;0.07;0.07;;;;;3.40;93450.00;;;;7399689;19;20165;-82
2023/12/21 03:56:13;;;;;;;0.13;0.13;;;;;3.40;93432.00;;;;7398849;19;20124;-80
2023/12/21 03:58:43;;;;;;;0.20;0.00;;;;;3.40;93428.00;;;;7400947;19;20609;-82
2023/12/21 04:01:26;;;;;;;0.00;0.00;;;;;3.40;93412.00;;;;7402098;19;20139;-82
2023/12/21 04:03:54;;;;;;;0.23;0.10;;;;;3.50;93407.00;;;;7399665;19;20137;-82
2023/12/21 04:06:28;;;;;;;0.10;0.10;;;;;3.50;93425.00;;;;7401589;19;20196;-80
2023/12/21 04:09:06;;;;;;;0.63;0.10;;;;;3.50;93411.00;;;;7400925;19;20133;-82
2023/12/21 04:11:40;;;;;;;0.00;0.00;;;;;3.60;93418.00;;;;7401147;19;20536;-81
2023/12/21 04:14:08;;;;;;;0.00;0.00;;;;;3.60;93423.00;;;;7401489;19;20152;-80
2023/12/21 04:16:42;;;;;;;0.10;0.10;;;;;3.60;93418.00;;;;7401343;19;20136;-81
2023/12/21 04:19:10;;;;;;;0.70;0.10;;;;;3.60;93422.00;;;;7398038;19;20176;-83
2023/12/21 04:21:44;;;;;;;0.00;0.00;;;;;3.50;93404.00;;;;7401781;19;20143;-82
2023/12/21 04:24:12;;;;;;;0.10;0.00;;;;;3.50;93413.00;;;;7399836;19;20144;-83
2023/12/21 04:26:46;;;;;;;0.00;0.00;;;;;3.50;93403.00;;;;7400540;19;20136;-81
2023/12/21 04:29:14;;;;;;;0.30;0.17;;;;;3.60;93399.00;;;;7400790;19;20608;-82
2023/12/21 04:31:44;;;;;;;0.60;0.10;;;;;3.60;93397.00;;;;7398794;19;20181;-81
2023/12/21 04:34:18;;;;;;;0.10;0.10;;;;;3.60;93403.00;;;;7398765;19;20137;-83
2023/12/21 04:36:52;;;;;;;0.07;0.07;;;;;3.60;93414.00;;;;7400115;19;20174;-81
2023/12/21 04:39:27;;;;;;;0.10;0.10;;;;;3.60;93399.00;;;;7400742;19;20200;-80
2023/12/21 04:42:08;;;;;;;0.00;0.00;;;;;3.60;93391.00;;;;7400605;19;20220;-82
2023/12/21 04:44:38;;;;;;;0.00;0.00;;;;;3.70;93386.00;;;;7398383;19;20236;-82
2023/12/21 04:47:12;;;;;;;0.00;0.00;;;;;3.60;93372.00;;;;7401221;19;20588;-82
2023/12/21 04:49:51;;;;;;;0.10;0.10;;;;;3.70;93379.00;;;;7400010;19;20160;-81
2023/12/21 04:52:25;;;;;;;0.20;0.00;;;;;3.60;93371.00;;;;7400019;19;20140;-82
2023/12/21 04:54:59;;;;;;;0.00;0.00;;;;;3.60;93373.00;;;;7399895;19;20145;-82
2023/12/21 04:57:27;;;;;;;0.03;0.00;;;;;3.60;93376.00;;;;7399716;19;20144;-82
2023/12/21 04:59:56;;;;;;;0.00;0.00;;;;;3.50;93372.00;;;;7399710;19;20245;-82
2023/12/21 05:02:31;;;;;;;0.00;0.00;;;;;3.60;93378.00;;;;7398745;19;20140;-82
2023/12/21 05:04:59;;;;;;;0.07;0.07;;;;;3.60;93365.00;;;;7400688;19;20608;-83
2023/12/21 05:07:35;;;;;;;0.00;0.00;;;;;3.70;93358.00;;;;7400385;19;20184;-81
2023/12/21 05:10:03;;;;;;;0.00;0.00;;;;;3.60;93358.00;;;;7400043;19;20137;-84
2023/12/21 05:12:39;;;;;;;0.10;0.10;;;;;3.60;93354.00;;;;7398633;19;20616;-79
2023/12/21 05:15:07;;;;;;;0.03;0.03;;;;;3.60;93347.00;;;;7398768;19;20141;-84
2023/12/21 05:17:41;;;;;;;0.00;0.00;;;;;3.60;93334.00;;;;7398907;19;20151;-84
2023/12/21 05:20:15;;;;;;;0.00;0.00;;;;;3.60;93351.00;;;;7398826;19;20150;-81
2023/12/21 05:22:52;;;;;;;0.10;0.00;;;;;3.60;93353.00;;;;7399138;19;20132;-81
2023/12/21 05:25:27;;;;;;;0.00;0.00;;;;;3.60;93341.00;;;;7398933;19;20144;-82
2023/12/21 05:27:55;;;;;;;0.10;0.10;;;;;3.60;93341.00;;;;7400008;19;20125;-81
2023/12/21 05:30:30;;;;;;;0.00;0.00;;;;;3.60;93337.00;;;;7398677;19;20137;-84
2023/12/21 05:32:58;;;;;;;1.13;0.10;;;;;3.60;93335.00;;;;7397896;19;20174;-83
2023/12/21 05:35:31;;;;;;;0.20;0.10;;;;;3.70;93327.00;;;;7397005;19;20646;-83
2023/12/21 05:38:05;;;;;;;0.00;0.00;;;;;3.70;93327.00;;;;7398860;19;20177;-83
2023/12/21 05:40:52;;;;;;;0.13;0.10;;;;;3.70;93329.00;;;;7396813;19;20185;-83
2023/12/21 05:43:28;;;;;;;0.03;0.03;;;;;3.80;93331.00;;;;7393032;19;20158;-82
2023/12/21 05:46:06;;;;;;;0.00;0.00;;;;;3.70;93321.00;;;;7394025;19;20128;-83
2023/12/21 05:48:40;;;;;;;0.00;0.00;;;;;3.70;93325.00;;;;7395542;19;20155;-83
2023/12/21 05:51:15;;;;;;;0.90;0.20;;;;;3.70;93306.00;;;;7394786;19;20144;-82
2023/12/21 05:53:50;;;;;;;1.07;0.00;;;;;3.80;93302.00;;;;7395197;19;20148;-85
2023/12/21 05:56:18;;;;;;;0.00;0.00;;;;;3.80;93302.00;;;;7394823;19;20145;-84
2023/12/21 05:58:52;;;;;;;0.00;0.00;;;;;3.80;93310.00;;;;7395553;19;20137;-85
2023/12/21 06:01:21;;;;;;;0.10;0.00;;;;;3.70;93298.00;;;;7391892;19;20152;-82
2023/12/21 06:04:02;;;;;;;0.10;0.00;;;;;3.80;93307.00;;;;7395411;19;20144;-83
2023/12/21 06:06:36;;;;;;;0.00;0.00;;;;;3.80;93299.00;;;;7396310;19;20263;-82
2023/12/21 06:09:11;;;;;;;0.00;0.00;;;;;3.90;93293.00;;;;7396208;19;20148;-81
2023/12/21 06:11:46;;;;;;;0.47;0.10;;;;;3.90;93295.00;;;;7396932;19;20141;-82
2023/12/21 06:14:21;;;;;;;0.10;0.10;;;;;3.90;93274.00;;;;7396093;19;20148;-83
2023/12/21 06:16:55;;;;;;;0.00;0.00;;;;;3.90;93276.00;;;;7400231;19;20139;-83
2023/12/21 06:19:22;;;;;;;0.00;0.00;;;;;3.90;93277.00;;;;7398157;19;20161;-83
2023/12/21 06:21:57;;;;;;;0.00;0.00;;;;;3.90;93261.00;;;;7397740;19;20156;-80
2023/12/21 06:24:32;;;;;;;0.00;0.00;;;;;3.80;93261.00;;;;7395153;19;20158;-80
2023/12/21 06:27:04;;;;;;;0.00;0.00;;;;;3.90;93240.00;;;;7398661;19;21617;-83
2023/12/21 06:29:40;;;;;;;0.73;0.00;;;;;3.70;93237.00;;;;7399410;19;20176;-84
2023/12/21 06:32:15;;;;;;;0.10;0.10;;;;;4.00;93235.00;;;;7398284;19;20610;-84
2023/12/21 06:34:51;;;;;;;0.00;0.00;;;;;3.90;93226.00;;;;7394576;19;20176;-86
2023/12/21 06:37:27;;;;;;;0.00;0.00;;;;;3.90;93220.00;;;;7390099;19;20147;-83
2023/12/21 06:40:08;;;;;;;0.00;0.00;;;;;3.90;93235.00;;;;7390509;19;20152;-82
2023/12/21 06:42:43;;;;;;;2.27;0.00;;;;;3.90;93230.00;;;;7399042;19;20152;-82
2023/12/21 06:45:17;;;;;;;0.00;0.00;;;;;3.90;93233.00;;;;7395265;19;20156;-82
2023/12/21 06:47:44;;;;;;;0.07;0.00;;;;;3.90;93232.00;;;;7395196;19;20144;-83
2023/12/21 06:50:20;;;;;;;0.00;0.00;;;;;4.00;93225.00;;;;7397667;19;20153;-83
2023/12/21 06:52:48;;;;;;;0.00;0.00;;;;;3.90;93217.00;;;;7397196;19;20137;-83
2023/12/21 06:55:24;;;;;;;0.10;0.07;;;;;3.90;93209.00;;;;7396244;19;20176;-83
2023/12/21 06:57:54;;;;;;;1.27;0.00;;;;;4.00;93213.00;;;;7395012;19;20173;-82
2023/12/21 07:00:29;;;;;;;0.20;0.00;;;;;3.90;93215.00;;;;7396020;19;20137;-78
2023/12/21 07:03:03;;;;;;;0.30;0.07;;;;;4.00;93225.00;;;;7397130;19;20143;-81
2023/12/21 07:05:37;;;;;;;0.00;0.00;;;;;4.00;93221.00;;;;7399579;19;20172;-80
2023/12/21 07:08:05;;;;;;;0.07;0.00;;;;;3.90;93222.00;;;;7401203;19;20153;-80
2023/12/21 07:10:40;;;;;;;0.00;0.00;;;;;4.00;93217.00;;;;7402695;19;20128;-81
2023/12/21 07:13:14;;;;;;;0.20;0.07;;;;;4.10;93208.00;;;;7405124;19;20139;-82
2023/12/21 07:15:43;;;;;;;0.00;0.00;;;;;4.10;93205.00;;;;7403298;19;20477;-81
2023/12/21 07:18:11;;;;;;;0.10;0.10;;;;;4.10;93167.00;;;;7411068;19;20166;-81
2023/12/21 07:20:45;;;;;;;0.00;0.00;;;;;4.20;93160.00;;;;7413864;19;20151;-81
2023/12/21 07:23:19;;;;;;;0.00;0.00;;;;;4.20;93153.00;;;;7409852;19;20148;-80
2023/12/21 07:25:53;;;;;;;0.00;0.00;;;;;4.20;93160.00;;;;7407219;19;20145;-82
2023/12/21 07:28:21;;;;;;;0.47;0.10;;;;;4.20;93155.00;;;;7406339;19;20137;-83
2023/12/21 07:31:00;;;;;;;0.40;0.10;;;;;4.30;93151.00;;;;7411449;19;20161;-82
2023/12/21 07:33:31;;;;;;;0.43;0.10;;;;;4.20;93155.00;;;;7410413;19;20667;-83
2023/12/21 07:36:07;;;;;;;0.03;0.03;;;;;4.20;93141.00;;;;7413887;19;20137;-81
2023/12/21 07:38:39;;;;;;;0.20;0.20;;;;;4.30;93134.00;;;;7412701;19;20151;-82
2023/12/21 07:41:21;;;;;;;0.10;0.10;;;;;4.30;93129.00;;;;7407475;19;20144;-81
2023/12/21 07:43:57;;;;;;;0.00;0.00;;;;;4.20;93134.00;;;;7411597;19;20129;-82
2023/12/21 07:46:25;;;;;;;0.20;0.10;;;;;4.30;93136.00;;;;7407690;19;20178;-83
2023/12/21 07:48:59;;;;;;;0.83;0.07;;;;;4.30;93155.00;;;;7409438;19;20219;-84
2023/12/21 07:51:27;;;;;;;0.00;0.00;;;;;4.30;93162.00;;;;7414181;19;20143;-86
2023/12/21 07:54:02;;;;;;;0.00;0.00;;;;;4.40;93133.00;;;;7412710;19;20165;-85
2023/12/21 07:56:30;;;;;;;0.00;0.00;;;;;4.40;93134.00;;;;7415990;19;20197;-84
2023/12/21 07:59:06;;;;;;;0.07;0.00;;;;;4.40;93147.00;;;;7420116;19;20128;-84
2023/12/21 08:01:41;;;;;;;0.20;0.00;;;;;4.30;93153.00;;;;7419944;19;20152;-84
2023/12/21 08:04:16;;;;;;;0.00;0.00;;;;;4.50;93151.00;;;;7418486;19;20141;-85
2023/12/21 08:06:47;;;;;;;1.50;0.20;;;;;4.50;93131.00;;;;7417996;19;20187;-83
2023/12/21 08:09:24;;;;;;;0.00;0.00;;;;;4.40;93156.00;;;;7419284;19;20149;-83
2023/12/21 08:11:52;;;;;;;0.00;0.00;;;;;4.50;93161.00;;;;7420609;19;20140;-83
2023/12/21 08:14:36;;;;;;;0.00;0.00;;;;;4.60;93154.00;;;;7419556;19;20200;-84
2023/12/21 08:17:09;;;;;;;0.00;0.00;;;;;4.70;93143.00;;;;7418595;19;20140;-83
2023/12/21 08:19:44;;;;;;;0.90;0.87;;;;;4.70;93113.00;;;;7416612;19;20640;-84
2023/12/21 08:22:17;;;;;;;0.00;0.00;;;;;4.60;93126.00;;;;7415791;19;20611;-84
2023/12/21 08:24:51;;;;;;;0.00;0.00;;;;;4.60;93123.00;;;;7415362;19;20129;-84
2023/12/21 08:27:26;;;;;;;0.00;0.00;;;;;4.60;93129.00;;;;7416843;19;20156;-80
2023/12/21 08:30:02;;;;;;;0.00;0.00;;;;;4.60;93100.00;;;;7416600;19;20169;-84
2023/12/21 08:32:29;;;;;;;0.30;0.10;;;;;4.70;93091.00;;;;7418703;19;20129;-84
2023/12/21 08:35:04;;;;;;;0.00;0.00;;;;;4.70;93099.00;;;;7418746;19;20133;-84
2023/12/21 08:37:38;;;;;;;0.00;0.00;;;;;4.60;93110.00;;;;7415508;19;20148;-83
2023/12/21 08:40:19;;;;;;;0.00;0.00;;;;;4.60;93097.00;;;;7415787;19;20179;-84
2023/12/21 08:42:46;;;;;;;0.00;0.00;;;;;4.60;93095.00;;;;7418882;19;20133;-85
2023/12/21 08:45:21;;;;;;;0.00;0.00;;;;;4.70;93113.00;;;;7414669;19;20177;-84
2023/12/21 08:47:49;;;;;;;0.63;0.10;;;;;4.60;93115.00;;;;7413945;19;20156;-83
2023/12/21 08:50:24;;;;;;;0.00;0.00;;;;;4.70;93126.00;;;;7414718;19;20132;-83
2023/12/21 08:52:53;;;;;;;1.70;0.00;;;;;4.70;93116.00;;;;7418678;19;20161;-84
2023/12/21 08:55:28;;;;;;;0.00;0.00;;;;;4.70;93108.00;;;;7417232;19;20206;-83
2023/12/21 08:58:03;;;;;;;0.13;0.13;;;;;4.80;93084.00;;;;7417001;19;20158;-84
2023/12/21 09:00:36;;;;;;;0.00;0.00;;;;;4.70;93092.00;;;;7418747;19;20153;-83
2023/12/21 09:03:10;;;;;;;0.10;0.10;;;;;4.70;93066.00;;;;7417088;19;20149;-84
2023/12/21 09:05:45;;;;;;;0.00;0.00;;;;;4.70;93080.00;;;;7411760;19;20501;-83
2023/12/21 09:08:20;;;;;;;0.00;0.00;;;;;4.70;93090.00;;;;7413586;19;20148;-80
2023/12/21 09:10:53;;;;;;;0.00;0.00;;;;;4.80;93086.00;;;;7415107;19;20177;-85
2023/12/21 09:13:31;;;;;;;0.00;0.00;;;;;4.90;93079.00;;;;7417342;19;20124;-86
2023/12/21 09:16:06;;;;;;;0.00;0.00;;;;;4.80;93084.00;;;;7419739;19;20173;-87
2023/12/21 09:18:38;;;;;;;0.17;0.00;;;;;4.90;93066.00;;;;7419214;19;20172;-86
2023/12/21 09:21:15;;;;;;;0.00;0.00;;;;;4.90;93057.00;;;;7417498;19;20640;-84
2023/12/21 09:23:51;;;;;;;0.00;0.00;;;;;4.90;93057.00;;;;7413288;19;20153;-82
2023/12/21 09:26:25;;;;;;;0.00;0.00;;;;;4.90;93080.00;;;;7407759;19;20135;-84
2023/12/21 09:28:59;;;;;;;0.00;0.00;;;;;5.00;93043.00;;;;7415479;19;20178;-83
2023/12/21 09:31:30;;;;;;;0.10;0.00;;;;;4.90;93060.00;;;;7411254;19;20132;-82
2023/12/21 09:34:04;;;;;;;0.00;0.00;;;;;5.00;93067.00;;;;7412492;19;20128;-82
2023/12/21 09:36:39;;;;;;;0.63;0.00;;;;;5.10;93060.00;;;;7408834;19;20136;-82
2023/12/21 09:39:07;;;;;;;0.10;0.10;;;;;5.10;93051.00;;;;7406543;19;20141;-84
2023/12/21 09:41:51;;;;;;;0.50;0.00;;;;;5.10;93039.00;;;;7413301;19;20604;-84
2023/12/21 09:44:31;;;;;;;0.00;0.00;;;;;5.10;93012.00;;;;7411775;19;20129;-81
2023/12/21 09:47:05;;;;;;;0.00;0.00;;;;;5.10;93006.00;;;;7413585;19;20152;-84
2023/12/21 09:49:40;;;;;;;0.07;0.00;;;;;5.10;93031.00;;;;7415249;19;20129;-84
2023/12/21 09:52:18;;;;;;;0.00;0.00;;;;;5.10;93029.00;;;;7415990;19;20153;-82
2023/12/21 09:54:53;;;;;;;0.10;0.10;;;;;5.10;93021.00;;;;7413233;19;20144;-85
2023/12/21 09:57:22;;;;;;;0.17;0.10;;;;;5.20;93010.00;;;;7405934;19;20151;-81
2023/12/21 09:59:58;;;;;;;0.00;0.00;;;;;5.20;92990.00;;;;7412589;19;20148;-86
2023/12/21 10:02:30;;;;;;;0.00;0.00;;;;;5.20;92983.00;;;;7411497;19;21257;-84
2023/12/21 10:05:10;;;;;;;0.00;0.00;;;;;5.20;92990.00;;;;7411969;19;20204;-86
2023/12/21 10:07:44;;;;;;;0.00;0.00;;;;;5.30;92998.00;;;;7414598;19;20132;-84
2023/12/21 10:10:12;;;;;;;0.00;0.00;;;;;5.30;93011.00;;;;7410195;19;20133;-81
2023/12/21 10:12:47;;;;;;;1.07;0.10;;;;;5.30;92989.00;;;;7397952;19;20133;-81
2023/12/21 10:15:17;;;;;;;0.00;0.00;;;;;5.30;92970.00;;;;7390612;19;20154;-80
2023/12/21 10:17:52;;;;;;;0.00;0.00;;;;;5.30;92972.00;;;;7394489;19;20736;-82
2023/12/21 10:20:23;;;;;;;0.17;0.00;;;;;5.40;92956.00;;;;7393209;19;20212;-81
2023/12/21 10:22:58;;;;;;;0.00;0.00;;;;;5.40;92922.00;;;;7393248;19;20159;-82
2023/12/21 10:25:33;;;;;;;0.00;0.00;;;;;5.40;92915.00;;;;7393799;19;20167;-80
2023/12/21 10:28:11;;;;;;;0.00;0.00;;;;;5.50;92911.00;;;;7394112;19;20163;-81
2023/12/21 10:30:46;;;;;;;0.00;0.00;;;;;5.50;92914.00;;;;7396388;19;20129;-81
2023/12/21 10:33:16;;;;;;;0.00;0.00;;;;;5.60;92917.00;;;;7402952;19;20144;-82
2023/12/21 10:35:52;;;;;;;0.63;0.03;;;;;5.60;92925.00;;;;7396573;19;20157;-81
2023/12/21 10:38:23;;;;;;;0.10;0.10;;;;;5.70;92882.00;;;;7397631;19;20137;-81
2023/12/21 10:41:12;;;;;;;0.07;0.07;;;;;5.70;92872.00;;;;7397882;19;20172;-83
2023/12/21 10:43:47;;;;;;;0.30;0.20;;;;;5.70;92859.00;;;;7397915;19;20131;-81
2023/12/21 10:46:22;;;;;;;1.70;0.10;;;;;5.70;92844.00;;;;7398831;19;20600;-80
2023/12/21 10:48:59;;;;;;;0.40;0.10;;;;;5.90;92819.00;;;;7400780;19;20151;-82
2023/12/21 10:51:30;;;;;;;0.00;0.00;;;;;5.80;92812.00;;;;7410388;19;20160;-83
2023/12/21 10:54:10;;;;;;;0.00;0.00;;;;;5.80;92814.00;;;;7404443;19;20141;-82
2023/12/21 10:56:46;;;;;;;0.03;0.00;;;;;5.70;92809.00;;;;7401176;19;20156;-82
2023/12/21 10:59:21;;;;;;;0.00;0.00;;;;;5.70;92815.00;;;;7393639;19;20156;-83
2023/12/21 11:01:50;;;;;;;0.00;0.00;;;;;5.70;92792.00;;;;7395524;19;20619;-80
2023/12/21 11:04:26;;;;;;;0.00;0.00;;;;;5.70;92787.00;;;;7399548;19;20157;-82
2023/12/21 11:07:03;;;;;;;0.57;0.00;;;;;5.70;92797.00;;;;7396770;19;20580;-82
2023/12/21 11:09:40;;;;;;;0.00;0.00;;;;;5.70;92798.00;;;;7396256;19;20496;-82
2023/12/21 11:12:14;;;;;;;0.00;0.00;;;;;5.70;92778.00;;;;7396034;19;20173;-83
2023/12/21 11:14:49;;;;;;;0.00;0.00;;;;;5.70;92748.00;;;;7395806;19;20166;-84
2023/12/21 11:17:19;;;;;;;0.03;0.03;;;;;5.80;92785.00;;;;7403268;19;20172;-82
2023/12/21 11:19:49;;;;;;;0.00;0.00;;;;;5.90;92786.00;;;;7397687;19;20184;-81
2023/12/21 11:22:24;;;;;;;0.50;0.10;;;;;5.90;92788.00;;;;7396341;19;20140;-81
2023/12/21 11:25:03;;;;;;;0.10;0.10;;;;;6.00;92773.00;;;;7391768;19;20588;-81
2023/12/21 11:27:36;;;;;;;0.27;0.10;;;;;6.10;92760.00;;;;7394378;19;20136;-80
2023/12/21 11:30:12;;;;;;;0.10;0.10;;;;;6.00;92785.00;;;;7398024;19;20584;-81
2023/12/21 11:32:44;;;;;;;0.50;0.10;;;;;6.00;92770.00;;;;7405379;19;20215;-82
2023/12/21 11:35:23;;;;;;;0.10;0.10;;;;;5.90;92781.00;;;;7401894;19;20490;-82
2023/12/21 11:37:56;;;;;;;0.00;0.00;;;;;5.80;92736.00;;;;7406722;19;20179;-82
2023/12/21 11:40:33;;;;;;;0.00;0.00;;;;;5.90;92774.00;;;;7403591;19;20176;-80
2023/12/21 11:43:21;;;;;;;0.07;0.07;;;;;5.90;92761.00;;;;7405399;19;20274;-83
2023/12/21 11:45:58;;;;;;;0.10;0.10;;;;;6.00;92759.00;;;;7403346;19;20172;-83
2023/12/21 11:48:33;;;;;;;0.00;0.00;;;;;6.10;92744.00;;;;7404985;19;20143;-83
2023/12/21 11:51:07;;;;;;;0.37;0.00;;;;;6.10;92729.00;;;;7401774;19;20148;-83
2023/12/21 11:53:43;;;;;;;3.60;0.13;;;;;6.00;92722.00;;;;7405271;19;20162;-82
2023/12/21 11:56:19;;;;;;;0.00;0.00;;;;;6.00;92738.00;;;;7414677;19;20173;-82
2023/12/21 11:58:59;;;;;;;0.10;0.10;;;;;6.10;92718.00;;;;7413000;19;20145;-82
2023/12/21 12:01:31;;;;;;;0.03;0.03;;;;;6.10;92710.00;;;;7402434;19;20153;-82
2023/12/21 12:04:06;;;;;;;0.00;0.00;;;;;6.00;92701.00;;;;7412076;19;20124;-82
2023/12/21 12:06:37;;;;;;;0.17;0.10;;;;;6.00;92713.00;;;;7416382;19;20129;-82
2023/12/21 12:09:12;;;;;;;0.30;0.17;;;;;5.80;92697.00;;;;7410607;19;20144;-82
2023/12/21 12:11:41;;;;;;;0.10;0.10;;;;;5.70;92688.00;;;;7414718;19;20140;-82
2023/12/21 12:14:16;;;;;;;0.00;0.00;;;;;5.70;92661.00;;;;7419571;19;20489;-82
2023/12/21 12:16:44;;;;;;;0.00;0.00;;;;;5.60;92697.00;;;;7403347;19;20161;-81
2023/12/21 12:19:18;;;;;;;0.30;0.10;;;;;5.60;92686.00;;;;7404295;19;20187;-82
2023/12/21 12:21:54;;;;;;;0.10;0.10;;;;;5.50;92687.00;;;;7408113;19;20204;-82
2023/12/21 12:24:30;;;;;;;0.90;0.00;;;;;5.60;92657.00;;;;7411353;19;20144;-82
2023/12/21 12:27:08;;;;;;;0.00;0.00;;;;;5.50;92672.00;;;;7408426;19;20149;-81
2023/12/21 12:29:42;;;;;;;0.67;0.20;;;;;5.50;92655.00;;;;7410738;19;20184;-82
2023/12/21 12:32:11;;;;;;;0.10;0.10;;;;;5.50;92624.00;;;;7415094;19;20157;-82
2023/12/21 12:34:45;;;;;;;0.10;0.10;;;;;5.50;92616.00;;;;7414646;19;20141;-81
2023/12/21 12:37:15;;;;;;;0.00;0.00;;;;;5.50;92615.00;;;;7416219;19;20167;-82
2023/12/21 12:39:51;;;;;;;0.00;0.00;;;;;5.40;92610.00;;;;7416465;19;20129;-83
2023/12/21 12:42:19;;;;;;;0.10;0.10;;;;;5.50;92620.00;;;;7407315;19;20197;-82
2023/12/21 12:44:53;;;;;;;1.50;0.10;;;;;5.50;92605.00;;;;7414242;19;20162;-82
2023/12/21 12:47:21;;;;;;;0.00;0.00;;;;;5.50;92638.00;;;;7416558;19;20141;-82
2023/12/21 12:49:58;;;;;;;1.00;0.00;;;;;5.40;92630.00;;;;7416029;19;20152;-83
2023/12/21 12:52:27;;;;;;;0.00;0.00;;;;;5.50;92635.00;;;;7415487;19;20160;-82
2023/12/21 12:55:23;;;;;;;0.00;0.00;;;;;5.40;92635.00;;;;7418517;19;20152;-83
2023/12/21 12:57:58;;;;;;;0.40;0.40;;;;;5.60;92644.00;;;;7417216;19;20148;-84
2023/12/21 13:00:33;;;;;;;0.40;0.40;;;;;5.60;92625.00;;;;7418304;19;20125;-82